createdAt,value
2022-11-23T00:00:45.781Z,40.50
2022-11-23T00:03:51.305Z,41.04
2022-11-23T00:06:55.781Z,40.72
2022-11-23T00:09:58.863Z,40.38
2022-11-23T00:13:01.890Z,40.86
2022-11-23T00:16:06.797Z,40.68
2022-11-23T00:19:10.883Z,40.78
2022-11-23T00:22:15.342Z,40.41
2022-11-23T00:25:18.584Z,40.63
2022-11-23T00:28:21.633Z,40.81
2022-11-23T00:31:25.702Z,40.67
2022-11-23T00:34:28.781Z,40.69
2022-11-23T00:37:33.238Z,40.16
2022-11-23T00:40:36.344Z,40.74
2022-11-23T00:43:39.694Z,40.80
2022-11-23T00:46:42.774Z,40.40
2022-11-23T00:49:45.847Z,40.58
2022-11-23T00:52:50.259Z,40.21
2022-11-23T00:55:53.954Z,40.20
2022-11-23T00:58:59.290Z,41.09
2022-11-23T01:02:02.410Z,40.29
2022-11-23T01:05:05.813Z,40.67
2022-11-23T01:08:10.536Z,40.70
2022-11-23T01:11:14.038Z,40.58
2022-11-23T01:14:17.391Z,40.30
2022-11-23T01:17:20.349Z,40.89
2022-11-23T01:20:23.394Z,40.34
2022-11-23T01:23:30.035Z,40.49
2022-11-23T01:26:34.502Z,40.39
2022-11-23T01:29:37.567Z,40.72
2022-11-23T01:32:40.621Z,40.88
2022-11-23T01:35:43.672Z,40.64
2022-11-23T01:38:49.618Z,40.39
2022-11-23T01:41:52.650Z,40.39
2022-11-23T01:45:34.301Z,40.62
2022-11-23T01:48:41.762Z,40.58
2022-11-23T01:51:47.923Z,40.41
2022-11-23T01:54:56.303Z,40.45
2022-11-23T01:57:59.516Z,40.23
2022-11-23T02:01:03.354Z,40.73
2022-11-23T02:04:10.303Z,40.78
2022-11-23T02:07:14.253Z,40.62
2022-11-23T02:10:19.643Z,40.66
2022-11-23T02:13:23.686Z,40.21
2022-11-23T02:16:26.991Z,40.18
2022-11-23T02:19:40.449Z,40.37
2022-11-23T02:22:55.602Z,40.22
2022-11-23T02:26:09.484Z,40.48
2022-11-23T02:29:17.140Z,40.68
2022-11-23T02:32:23.187Z,40.63
2022-11-23T02:35:26.177Z,40.75
2022-11-23T02:38:32.763Z,40.22
2022-11-23T02:41:39.459Z,40.61
2022-11-23T02:44:50.895Z,40.49
2022-11-23T02:47:53.864Z,40.29
2022-11-23T02:50:56.899Z,40.35
2022-11-23T02:53:59.940Z,40.43
2022-11-23T02:57:04.508Z,40.51
2022-11-23T03:00:09.037Z,40.37
2022-11-23T03:03:12.126Z,40.80
2022-11-23T03:06:15.110Z,40.17
2022-11-23T03:09:18.113Z,40.62
2022-11-23T03:12:22.506Z,40.57
2022-11-23T03:15:26.074Z,40.85
2022-11-23T03:18:29.137Z,40.32
2022-11-23T03:21:32.230Z,40.42
2022-11-23T03:24:35.506Z,40.26
2022-11-23T03:27:40.821Z,40.58
2022-11-23T03:30:44.676Z,40.68
2022-11-23T03:33:47.721Z,40.69
2022-11-23T03:36:50.738Z,40.60
2022-11-23T03:39:53.798Z,40.88
2022-11-23T03:42:58.267Z,40.70
2022-11-23T03:46:01.315Z,40.31
2022-11-23T03:49:04.820Z,40.25
2022-11-23T03:52:07.842Z,40.86
2022-11-23T03:55:10.990Z,40.67
2022-11-23T03:58:16.014Z,40.49
2022-11-23T04:01:19.115Z,40.26
2022-11-23T04:04:22.179Z,40.77
2022-11-23T04:07:25.239Z,40.50
2022-11-23T04:10:28.304Z,40.48
2022-11-23T04:13:33.621Z,40.53
2022-11-23T04:16:36.648Z,40.83
2022-11-23T04:19:39.713Z,40.93
2022-11-23T04:22:42.740Z,41.20
2022-11-23T04:25:46.727Z,41.18
2022-11-23T04:28:51.109Z,40.49
2022-11-23T04:31:54.206Z,40.59
2022-11-23T04:34:57.344Z,40.54
2022-11-23T04:38:00.356Z,40.50
2022-11-23T04:41:03.372Z,40.65
2022-11-23T04:44:08.143Z,41.20
2022-11-23T04:47:11.813Z,41.36
2022-11-23T04:50:14.854Z,41.29
2022-11-23T04:53:17.847Z,41.13
2022-11-23T04:56:20.896Z,42.00
2022-11-23T04:59:25.309Z,41.91
2022-11-23T05:02:28.346Z,42.70
2022-11-23T05:05:31.374Z,43.17
2022-11-23T05:08:34.585Z,43.30
2022-11-23T05:11:37.626Z,42.78
2022-11-23T05:14:43.107Z,43.32
2022-11-23T05:17:46.267Z,42.94
2022-11-23T05:20:49.383Z,43.12
2022-11-23T05:23:52.416Z,42.94
2022-11-23T05:26:56.439Z,42.60
2022-11-23T05:30:01.031Z,42.72
2022-11-23T05:33:04.603Z,42.72
2022-11-23T05:36:08.388Z,42.96
2022-11-23T05:39:11.593Z,42.56
2022-11-23T05:42:14.605Z,42.33
2022-11-23T05:45:19.246Z,42.61
2022-11-23T05:48:22.233Z,42.58
2022-11-23T05:51:25.241Z,42.30
2022-11-23T05:54:28.220Z,42.46
2022-11-23T05:57:31.194Z,42.27
2022-11-23T06:00:35.645Z,42.27
2022-11-23T06:03:38.724Z,41.92
2022-11-23T06:06:41.835Z,41.97
2022-11-23T06:09:44.876Z,42.23
2022-11-23T06:12:48.040Z,42.14
2022-11-23T06:15:52.387Z,41.96
2022-11-23T06:18:55.525Z,41.48
2022-11-23T06:21:59.201Z,41.66
2022-11-23T06:25:02.581Z,41.84
2022-11-23T06:28:06.190Z,41.43
2022-11-23T06:31:11.379Z,41.39
2022-11-23T06:34:14.813Z,42.09
2022-11-23T06:37:17.798Z,41.83
2022-11-23T06:40:20.798Z,41.97
2022-11-23T06:43:23.860Z,42.11
2022-11-23T06:46:28.293Z,41.50
2022-11-23T06:49:31.421Z,40.77
2022-11-23T06:52:34.807Z,40.95
2022-11-23T06:55:37.884Z,41.32
2022-11-23T06:58:41.361Z,41.34
2022-11-23T07:01:45.837Z,41.14
2022-11-23T07:04:48.900Z,41.49
2022-11-23T07:07:52.297Z,41.75
2022-11-23T07:10:55.367Z,41.44
2022-11-23T07:13:58.410Z,41.54
2022-11-23T07:17:02.992Z,41.39
2022-11-23T07:20:07.238Z,41.34
2022-11-23T07:23:12.412Z,40.75
2022-11-23T07:26:15.541Z,41.35
2022-11-23T07:29:18.621Z,40.87
2022-11-23T07:32:23.144Z,40.99
2022-11-23T07:35:26.153Z,41.19
2022-11-23T07:38:29.174Z,41.68
2022-11-23T07:41:32.292Z,42.26
2022-11-23T07:44:35.313Z,42.10
2022-11-23T07:47:40.212Z,42.32
2022-11-23T07:50:43.238Z,42.52
2022-11-23T07:53:46.309Z,42.41
2022-11-23T07:56:49.356Z,41.76
2022-11-23T07:59:52.364Z,41.85
2022-11-23T08:03:26.090Z,42.38
2022-11-23T08:06:21.784Z,42.05
2022-11-23T08:09:24.844Z,42.34
2022-11-23T08:12:27.890Z,41.80
2022-11-23T08:15:31.180Z,41.61
2022-11-23T08:18:35.684Z,41.69
2022-11-23T08:21:39.332Z,42.03
2022-11-23T08:24:42.276Z,41.94
2022-11-23T08:27:45.259Z,42.12
2022-11-23T08:30:48.427Z,42.02
2022-11-23T08:33:52.861Z,41.74
2022-11-23T08:36:55.884Z,42.08
2022-11-23T08:39:58.874Z,42.05
2022-11-23T08:43:01.976Z,41.89
2022-11-23T08:46:10.889Z,41.34
2022-11-23T08:49:15.796Z,41.27
2022-11-23T08:52:18.851Z,41.75
2022-11-23T08:55:21.891Z,41.46
2022-11-23T08:58:24.970Z,41.79
2022-11-23T09:01:28.116Z,41.29
2022-11-23T09:04:32.668Z,41.55
2022-11-23T09:07:35.916Z,41.26
2022-11-23T09:10:39.897Z,41.52
2022-11-23T09:13:43.347Z,41.24
2022-11-23T09:16:46.436Z,41.17
2022-11-23T09:19:51.821Z,41.58
2022-11-23T09:22:56.498Z,41.07
2022-11-23T09:26:00.136Z,41.26
2022-11-23T09:29:03.121Z,41.89
2022-11-23T09:32:06.417Z,41.22
2022-11-23T09:35:11.284Z,41.44
2022-11-23T09:38:14.538Z,41.88
2022-11-23T09:41:32.637Z,41.83
2022-11-23T09:44:52.491Z,41.12
2022-11-23T09:48:16.328Z,41.74
2022-11-23T09:51:23.077Z,41.11
2022-11-23T09:54:30.159Z,41.23
2022-11-23T09:57:37.632Z,41.41
2022-11-23T10:00:47.151Z,41.31
2022-11-23T10:03:50.491Z,41.54
2022-11-23T10:07:00.315Z,41.02
2022-11-23T10:10:14.648Z,41.06
2022-11-23T10:13:35.316Z,41.15
2022-11-23T10:16:46.694Z,41.09
2022-11-23T10:20:04.387Z,41.34
2022-11-23T10:23:19.010Z,41.32
2022-11-23T10:26:28.601Z,41.36
2022-11-23T10:29:33.801Z,41.60
2022-11-23T10:32:42.576Z,41.63
2022-11-23T10:35:45.581Z,41.61
2022-11-23T10:38:52.394Z,41.71
2022-11-23T10:41:59.924Z,41.52
2022-11-23T10:45:04.661Z,41.58
2022-11-23T10:48:07.994Z,42.24
2022-11-23T10:51:22.889Z,42.16
2022-11-23T10:54:33.769Z,42.24
2022-11-23T10:57:45.341Z,42.21
2022-11-23T11:00:59.631Z,42.07
2022-11-23T11:04:05.069Z,41.62
2022-11-23T11:07:24.986Z,41.64
2022-11-23T11:10:41.084Z,41.78
2022-11-23T11:13:45.710Z,42.24
2022-11-23T11:16:50.742Z,42.01
2022-11-23T11:19:54.243Z,41.52
2022-11-23T11:22:59.574Z,41.69
2022-11-23T11:26:19.503Z,41.51
2022-11-23T11:29:38.782Z,42.00
2022-11-23T11:32:51.456Z,41.77
2022-11-23T11:35:56.189Z,41.57
2022-11-23T11:39:19.661Z,41.66
2022-11-23T11:42:31.579Z,41.79
2022-11-23T11:45:39.568Z,41.81
2022-11-23T11:48:46.736Z,41.41
2022-11-23T11:51:56.145Z,41.26
2022-11-23T11:55:06.416Z,41.56
2022-11-23T11:58:15.486Z,41.91
2022-11-23T12:01:33.761Z,41.63
2022-11-23T12:04:42.836Z,41.79
2022-11-23T12:07:53.984Z,41.80
2022-11-23T12:11:00.268Z,41.69
2022-11-23T12:14:07.452Z,41.21
2022-11-23T12:17:34.863Z,42.13
2022-11-23T12:20:49.620Z,41.96
2022-11-23T12:24:02.656Z,41.85
2022-11-23T12:27:17.611Z,42.55
2022-11-23T12:30:27.133Z,42.33
2022-11-23T12:37:22.463Z,42.29
2022-11-23T12:40:56.383Z,42.23
2022-11-23T12:44:15.985Z,42.03
2022-11-23T12:47:31.807Z,42.23
2022-11-23T12:50:41.246Z,42.16
2022-11-23T12:53:55.705Z,41.78
2022-11-23T12:57:09.161Z,41.46
2022-11-23T13:00:17.144Z,41.96
2022-11-23T13:03:42.403Z,41.56
2022-11-23T13:07:38.315Z,41.54
2022-11-23T13:10:54.891Z,42.00
2022-11-23T13:14:08.845Z,41.37
2022-11-23T13:17:26.545Z,41.44
2022-11-23T13:20:51.211Z,41.40
2022-11-23T13:23:54.575Z,41.48
2022-11-23T13:27:32.304Z,41.53
2022-11-23T13:31:07.091Z,41.22
2022-11-23T13:34:02.568Z,41.56
2022-11-23T13:37:14.245Z,41.65
2022-11-23T13:40:23.798Z,41.20
2022-11-23T13:43:30.169Z,41.62
2022-11-23T13:46:39.318Z,41.13
2022-11-23T13:49:44.555Z,41.35
2022-11-23T13:52:52.922Z,41.12
2022-11-23T13:55:59.059Z,41.86
2022-11-23T13:59:30.921Z,41.07
2022-11-23T14:02:34.023Z,41.55
2022-11-23T14:05:57.282Z,41.17
2022-11-23T14:09:06.037Z,41.14
2022-11-23T14:12:18.954Z,41.23
2022-11-23T14:15:24.784Z,41.38
2022-11-23T14:18:42.828Z,41.21
2022-11-23T14:21:59.049Z,41.54
2022-11-23T14:25:23.945Z,41.07
2022-11-23T14:28:44.595Z,41.13
2022-11-23T14:31:58.339Z,41.31
2022-11-23T14:35:21.013Z,41.40
2022-11-23T14:38:51.431Z,41.41
2022-11-23T14:41:59.846Z,40.98
2022-11-23T14:45:06.593Z,41.26
2022-11-23T14:48:23.184Z,41.42
2022-11-23T14:51:27.756Z,40.94
2022-11-23T14:54:32.226Z,41.34
2022-11-23T14:57:46.433Z,40.97
2022-11-23T15:00:50.978Z,41.12
2022-11-23T15:03:58.967Z,41.16
2022-11-23T15:07:06.612Z,41.14
2022-11-23T15:10:21.567Z,40.82
2022-11-23T15:13:28.185Z,41.08
2022-11-23T15:16:39.716Z,40.90
2022-11-23T15:19:43.303Z,41.06
2022-11-23T15:22:46.489Z,41.41
2022-11-23T15:25:53.768Z,40.98
2022-11-23T15:28:58.729Z,41.32
2022-11-23T15:35:31.851Z,41.34
2022-11-23T15:38:35.014Z,41.02
2022-11-23T15:41:40.107Z,41.03
2022-11-23T15:44:49.016Z,40.84
2022-11-23T15:47:54.430Z,41.01
2022-11-23T15:50:59.486Z,40.90
2022-11-23T15:54:02.897Z,41.16
2022-11-23T15:57:09.287Z,41.11
2022-11-23T16:00:25.280Z,41.09
2022-11-23T16:03:33.274Z,41.07
2022-11-23T16:06:38.960Z,41.81
2022-11-23T16:09:51.306Z,39.45
2022-11-23T16:12:56.503Z,39.43
2022-11-23T16:16:04.418Z,38.58
2022-11-23T16:19:21.713Z,38.20
2022-11-23T16:22:31.990Z,38.00
2022-11-23T16:25:36.372Z,37.88
2022-11-23T16:28:41.633Z,37.08
2022-11-23T16:31:55.598Z,37.85
2022-11-23T16:35:07.963Z,37.63
2022-11-23T16:38:12.649Z,38.09
2022-11-23T16:41:15.709Z,38.10
2022-11-23T16:44:19.274Z,38.25
2022-11-23T16:47:35.910Z,38.52
2022-11-23T16:50:39.057Z,39.28
2022-11-23T16:54:11.800Z,39.37
2022-11-23T16:57:08.139Z,39.35
2022-11-23T17:00:17.446Z,39.60
2022-11-23T17:03:24.109Z,39.96
2022-11-23T17:06:27.151Z,39.75
2022-11-23T17:09:30.176Z,40.08
2022-11-23T17:12:33.455Z,40.61
2022-11-23T17:15:36.496Z,40.68
2022-11-23T17:18:40.889Z,40.99
2022-11-23T17:21:44.116Z,40.82
2022-11-23T17:24:47.467Z,41.33
2022-11-23T17:27:50.547Z,40.88
2022-11-23T17:30:53.644Z,41.13
2022-11-23T17:33:58.440Z,41.55
2022-11-23T17:37:01.571Z,41.52
2022-11-23T17:40:05.002Z,42.34
2022-11-23T17:43:08.262Z,42.59
2022-11-23T17:46:18.693Z,43.02
2022-11-23T17:49:28.343Z,42.37
2022-11-23T17:52:31.524Z,42.76
2022-11-23T17:55:34.671Z,42.48
2022-11-23T17:58:37.839Z,42.30
2022-11-23T18:01:41.589Z,42.20
2022-11-23T18:04:46.273Z,42.00
2022-11-23T18:07:50.692Z,42.58
2022-11-23T18:10:57.868Z,42.95
2022-11-23T18:14:03.343Z,42.78
2022-11-23T18:17:06.545Z,42.85
2022-11-23T18:20:12.168Z,43.48
2022-11-23T18:23:15.226Z,43.02
2022-11-23T18:26:21.102Z,43.16
2022-11-23T18:29:24.157Z,43.41
2022-11-23T18:32:27.198Z,43.06
2022-11-23T18:35:31.577Z,43.24
2022-11-23T18:38:35.008Z,43.31
2022-11-23T18:41:38.202Z,43.36
2022-11-23T18:44:41.339Z,43.29
2022-11-23T18:47:44.543Z,43.15
2022-11-23T18:50:49.129Z,43.41
2022-11-23T18:53:53.382Z,42.97
2022-11-23T18:56:56.405Z,43.17
2022-11-23T18:59:59.591Z,43.42
2022-11-23T19:03:03.882Z,43.07
2022-11-23T19:06:12.009Z,43.37
2022-11-23T19:09:15.484Z,43.45
2022-11-23T19:12:18.509Z,43.60
2022-11-23T19:15:21.897Z,43.06
2022-11-23T19:18:24.944Z,43.07
2022-11-23T19:21:31.441Z,43.67
2022-11-23T19:24:34.508Z,43.35
2022-11-23T19:27:37.782Z,43.24
2022-11-23T19:30:40.846Z,43.15
2022-11-23T19:33:44.258Z,43.55
2022-11-23T19:36:49.450Z,43.44
2022-11-23T19:39:52.461Z,43.75
2022-11-23T19:42:55.507Z,43.53
2022-11-23T19:45:59.393Z,43.25
2022-11-23T19:49:02.513Z,43.29
2022-11-23T19:52:06.996Z,43.58
2022-11-23T19:55:10.568Z,43.19
2022-11-23T19:58:15.092Z,42.91
2022-11-23T20:01:19.774Z,43.56
2022-11-23T20:04:22.929Z,43.47
2022-11-23T20:07:27.461Z,43.02
2022-11-23T20:10:30.625Z,42.80
2022-11-23T20:13:34.474Z,43.19
2022-11-23T20:16:37.909Z,43.04
2022-11-23T20:19:41.156Z,43.13
2022-11-23T20:22:45.842Z,42.89
2022-11-23T20:25:49.074Z,42.74
2022-11-23T20:28:53.766Z,42.92
2022-11-23T20:31:56.903Z,42.79
2022-11-23T20:34:59.984Z,42.90
2022-11-23T20:38:05.068Z,42.98
2022-11-23T20:41:15.588Z,42.76
2022-11-23T20:44:18.849Z,42.41
2022-11-23T20:47:22.478Z,42.74
2022-11-23T20:50:28.060Z,42.51
2022-11-23T20:53:32.758Z,42.30
2022-11-23T20:56:36.091Z,42.49
2022-11-23T20:59:39.152Z,42.46
2022-11-23T21:02:42.281Z,42.38
2022-11-23T21:05:45.411Z,42.59
2022-11-23T21:08:51.282Z,42.67
2022-11-23T21:12:12.066Z,42.27
2022-11-23T21:15:15.656Z,42.55
2022-11-23T21:18:18.775Z,42.72
2022-11-23T21:21:21.886Z,42.39
2022-11-23T21:24:27.318Z,42.68
2022-11-23T21:27:30.424Z,42.26
2022-11-23T21:30:33.584Z,42.54
2022-11-23T21:33:37.407Z,42.22
2022-11-23T21:36:40.927Z,42.25
2022-11-23T21:39:51.110Z,42.29
2022-11-23T21:42:56.098Z,41.76
2022-11-23T21:46:02.394Z,42.12
2022-11-23T21:49:06.525Z,42.28
2022-11-23T21:52:10.024Z,42.22
2022-11-23T21:55:14.463Z,41.67
2022-11-23T21:58:17.506Z,42.02
2022-11-23T22:01:22.027Z,42.07
2022-11-23T22:04:25.161Z,41.86
2022-11-23T22:07:28.459Z,41.54
2022-11-23T22:10:32.863Z,41.94
2022-11-23T22:13:37.171Z,41.71
2022-11-23T22:16:43.080Z,41.15
2022-11-23T22:19:46.121Z,41.77
2022-11-23T22:22:49.114Z,41.52
2022-11-23T22:25:53.513Z,41.50
2022-11-23T22:28:57.833Z,41.42
2022-11-23T22:32:00.896Z,41.14
2022-11-23T22:35:03.970Z,41.41
2022-11-23T22:38:06.946Z,41.01
2022-11-23T22:41:13.416Z,41.23
2022-11-23T22:44:16.413Z,41.21
2022-11-23T22:47:19.406Z,41.45
2022-11-23T22:50:22.417Z,41.39
2022-11-23T22:53:25.978Z,41.21
2022-11-23T22:56:31.661Z,41.09
2022-11-23T22:59:34.676Z,41.42
2022-11-23T23:02:37.841Z,41.24
2022-11-23T23:05:40.958Z,41.14
2022-11-23T23:08:44.282Z,40.99
2022-11-23T23:11:48.746Z,40.77
2022-11-23T23:14:51.749Z,41.11
2022-11-23T23:17:54.897Z,40.84
2022-11-23T23:21:05.163Z,41.07
2022-11-23T23:24:08.606Z,40.59
2022-11-23T23:27:13.017Z,40.57
2022-11-23T23:30:17.358Z,40.64
2022-11-23T23:33:20.442Z,41.17
2022-11-23T23:36:25.308Z,40.54
2022-11-23T23:39:28.319Z,41.06
2022-11-23T23:42:34.101Z,40.99
2022-11-23T23:45:37.126Z,40.58
2022-11-23T23:48:41.714Z,41.17
2022-11-23T23:51:48.758Z,41.07
2022-11-23T23:54:54.473Z,41.12
2022-11-23T23:58:00.627Z,41.06
